Union, KY

10:03 AM EST on December 25, 2014 (GMT -0500)
Butler County Regional | Change Station
CLOSE
Current Station
Airport
Location: Hamilton,
Elevation: 633 ft
Nearby Weather Stations

Elev 633 ft 39.36 °N, 84.52 °W | Updated 10 minutes ago

Overcast
Overcast
39 °F
Feels Like 35 °F
N
6
Wind Variable Wind from West

Today
High -- | Low -- °F
--% Chance of Precip.
Yesterday
High -- | Low -- °F
Precip. -- in
7:55 AM 5:22 PM
Waxing Crescent, 17% visible
Pressure 30.11 in
Visibility 10.0 miles
Clouds Mostly Cloudy 2000 ft
Mostly Cloudy 2500 ft
Overcast 3600 ft
Windchill 35 °F
Dew Point 33 °F
Humidity 79%
Rainfall 0.01 in
Snow Depth Not available.
UV 0 out of 12
Pollen .10 out of 12
Air Quality Not available.
Flu Activity Not available.
METAR KHAO 251453Z AUTO 26005KT 10SM BKN020 BKN025 OVC036 04/01 A3009 RMK AO2 SLP194 60001 T00390006 53014

More Conditions Fewer Conditions

Pressure 30.11 in
Visibility 10.0 miles
Clouds Mostly Cloudy 2000 ft
Mostly Cloudy 2500 ft
Overcast 3600 ft
Windchill 35 °F
Dew Point 33 °F
Humidity 79%
Rainfall 0.01 in
Snow Depth Not available.
UV 0 out of 12
Pollen .10 out of 12
Air Quality Not available.
Flu Activity Not available.
METAR KHAO 251453Z AUTO 26005KT 10SM BKN020 BKN025 OVC036 04/01 A3009 RMK AO2 SLP194 60001 T00390006 53014

More Conditions Fewer Conditions

10-Day Weather Forecast

Almanac

Astronomy

Dec. 25, 2014 Rise Set
Actual Time
Civil Twilight
Nautical Twilight
Astronomical Twilight
Moon
Length of Visible Light
Length of Day
Tomorrow will be .
, % of the Moon is Illuminated

Today's Extremes

State Highs State Lows

Community

WunderPhotos

Upload Photos

1,780,290 photos uploaded!

WunderBlogs® & News

Nearby

Air Quality

  Air Quality AQ Index Pollutant
Not available.

Snow Depth

Station Depth Elevation

Earthquake Activity

City Distance Mag. Time & Date
Minimum magnitude displayed is 2.5.

Coastal Water Temperatures

Place Temperature

Nearby Weather Stations